Time;durP1;ratioP1;P1;durP2;ratioP2;P2;SDS_P1;SDS_P2;PMS_P1;PMS_P2;Temp;Humidity;BMP_temperature;BMP_pressure;BME280_temperature;BME280_humidity;BME280_pressure;Samples;Min_cycle;Max_cycle;Signal;HPM_P1;HPM_P2
2022/01/07 00:01:30;;;;;;;;;;;23.80;42.00;;;;;;1556540;76;1170;-68
2022/01/07 00:03:32;;;;;;;;;;;23.80;42.00;;;;;;1551730;76;762;-69
2022/01/07 00:05:34;;;;;;;;;;;23.80;41.90;;;;;;1564758;76;771;-69
2022/01/07 00:07:36;;;;;;;;;;;23.70;41.90;;;;;;1542897;76;690;-71
2022/01/07 00:09:37;;;;;;;;;;;23.80;41.80;;;;;;1568386;75;756;-68
2022/01/07 00:11:39;;;;;;;;;;;23.80;41.70;;;;;;1558300;76;1159;-72
2022/01/07 00:13:41;;;;;;;;;;;23.90;41.80;;;;;;1544234;76;807;-68
2022/01/07 00:15:45;;;;;;;;;;;23.80;41.70;;;;;;1557760;76;772;-65
2022/01/07 00:17:46;;;;;;;;;;;23.90;41.70;;;;;;1534214;76;1908;-68
2022/01/07 00:19:48;;;;;;;;;;;23.80;41.70;;;;;;1552720;76;785;-71
2022/01/07 00:21:50;;;;;;;;;;;23.70;41.90;;;;;;1555459;76;1177;-67
2022/01/07 00:23:52;;;;;;;;;;;23.70;42.00;;;;;;1546163;76;786;-68
2022/01/07 00:25:54;;;;;;;;;;;23.70;41.90;;;;;;1554849;76;797;-68
2022/01/07 00:27:56;;;;;;;;;;;23.70;42.00;;;;;;1545608;76;753;-70
2022/01/07 00:29:58;;;;;;;;;;;23.80;41.90;;;;;;1559935;76;786;-68
2022/01/07 00:31:59;;;;;;;;;;;23.80;42.00;;;;;;1554331;76;1267;-69
2022/01/07 00:34:01;;;;;;;;;;;23.70;42.00;;;;;;1531672;76;791;-71
2022/01/07 00:36:03;;;;;;;;;;;23.80;42.00;;;;;;1555241;76;1938;-69
2022/01/07 00:38:05;;;;;;;;;;;23.80;42.10;;;;;;1556756;76;734;-67
2022/01/07 00:40:09;;;;;;;;;;;23.70;42.10;;;;;;1562376;76;766;-67
2022/01/07 00:42:11;;;;;;;;;;;23.70;42.10;;;;;;1544574;76;1742;-68
2022/01/07 00:44:12;;;;;;;;;;;23.70;42.10;;;;;;1557224;74;761;-68
2022/01/07 00:46:14;;;;;;;;;;;23.80;42.10;;;;;;1540591;76;675;-69
2022/01/07 00:48:16;;;;;;;;;;;23.80;42.10;;;;;;1562479;75;786;-67
2022/01/07 00:50:19;;;;;;;;;;;23.70;42.20;;;;;;1550247;76;710;-67
2022/01/07 00:52:22;;;;;;;;;;;23.80;42.10;;;;;;1560149;76;1088;-68
2022/01/07 00:54:24;;;;;;;;;;;23.70;42.20;;;;;;1563469;76;729;-68
2022/01/07 00:56:25;;;;;;;;;;;23.70;42.20;;;;;;1548534;76;1923;-68
2022/01/07 00:58:27;;;;;;;;;;;23.70;42.20;;;;;;1553570;76;825;-68
2022/01/07 01:00:29;;;;;;;;;;;23.70;42.30;;;;;;1556284;76;664;-68
2022/01/07 01:02:31;;;;;;;;;;;23.70;42.30;;;;;;1563161;76;1126;-70
2022/01/07 01:04:33;;;;;;;;;;;23.60;42.20;;;;;;1555831;76;711;-68
2022/01/07 01:06:35;;;;;;;;;;;23.60;42.30;;;;;;1537600;76;748;-68
2022/01/07 01:08:37;;;;;;;;;;;23.60;42.30;;;;;;1561499;75;753;-68
2022/01/07 01:10:39;;;;;;;;;;;23.60;42.30;;;;;;1545064;76;1139;-68
2022/01/07 01:12:41;;;;;;;;;;;23.60;42.40;;;;;;1522917;76;793;-69
2022/01/07 01:14:43;;;;;;;;;;;23.70;42.50;;;;;;1553670;75;778;-68
2022/01/07 01:16:47;;;;;;;;;;;23.70;42.60;;;;;;1551489;75;1945;-68
2022/01/07 01:18:48;;;;;;;;;;;23.60;42.40;;;;;;1550590;75;1906;-70
2022/01/07 01:20:50;;;;;;;;;;;23.70;42.50;;;;;;1563527;76;1208;-68
2022/01/07 01:22:52;;;;;;;;;;;23.70;42.50;;;;;;1557467;75;728;-67
2022/01/07 01:24:54;;;;;;;;;;;23.60;42.30;;;;;;1562646;76;741;-68
2022/01/07 01:26:55;;;;;;;;;;;23.70;42.40;;;;;;1551602;76;786;-69
2022/01/07 01:28:57;;;;;;;;;;;23.60;42.30;;;;;;1551011;76;815;-68
2022/01/07 01:30:59;;;;;;;;;;;23.70;42.40;;;;;;1541159;75;1155;-69
2022/01/07 01:33:01;;;;;;;;;;;23.60;42.40;;;;;;1549618;76;753;-69
2022/01/07 01:35:04;;;;;;;;;;;23.60;42.40;;;;;;1556076;76;722;-69
2022/01/07 01:37:06;;;;;;;;;;;23.60;42.40;;;;;;1557262;75;1924;-69
2022/01/07 01:39:10;;;;;;;;;;;23.60;42.40;;;;;;1561107;75;781;-68
2022/01/07 01:41:12;;;;;;;;;;;23.60;42.40;;;;;;1549884;76;1106;-69
2022/01/07 01:43:14;;;;;;;;;;;23.60;42.30;;;;;;1540046;76;732;-69
2022/01/07 01:45:18;;;;;;;;;;;23.60;42.40;;;;;;1552423;76;786;-67
2022/01/07 01:47:20;;;;;;;;;;;23.50;42.60;;;;;;1556213;76;680;-70
2022/01/07 01:49:22;;;;;;;;;;;23.50;42.70;;;;;;1544049;75;763;-66
2022/01/07 01:51:24;;;;;;;;;;;23.40;42.70;;;;;;1565303;76;1151;-67
2022/01/07 01:53:25;;;;;;;;;;;23.40;42.80;;;;;;1564316;76;782;-67
2022/01/07 01:55:27;;;;;;;;;;;23.30;42.90;;;;;;1559553;76;701;-67
2022/01/07 01:57:29;;;;;;;;;;;23.30;43.00;;;;;;1536644;76;1941;-67
2022/01/07 01:59:32;;;;;;;;;;;23.30;43.00;;;;;;1549622;76;695;-67
2022/01/07 02:01:34;;;;;;;;;;;23.30;43.10;;;;;;1563774;76;1159;-67
2022/01/07 02:03:36;;;;;;;;;;;23.30;43.10;;;;;;1548269;76;796;-67
2022/01/07 02:05:38;;;;;;;;;;;23.30;43.00;;;;;;1559188;76;634;-66
2022/01/07 02:07:41;;;;;;;;;;;23.40;43.00;;;;;;1539536;76;730;-66
2022/01/07 02:09:42;;;;;;;;;;;23.40;42.90;;;;;;1551194;75;809;-67
2022/01/07 02:11:44;;;;;;;;;;;23.40;42.80;;;;;;1567870;76;1209;-67
2022/01/07 02:13:48;;;;;;;;;;;23.40;42.80;;;;;;1560589;76;769;-66
2022/01/07 02:15:50;;;;;;;;;;;23.40;42.80;;;;;;1556114;76;833;-67
2022/01/07 02:17:53;;;;;;;;;;;23.50;43.00;;;;;;1562881;76;1927;-70
2022/01/07 02:19:55;;;;;;;;;;;23.40;42.80;;;;;;1542002;75;717;-67
2022/01/07 02:21:57;;;;;;;;;;;23.50;42.90;;;;;;1564583;75;1202;-67
2022/01/07 02:23:59;;;;;;;;;;;23.50;42.80;;;;;;1559858;75;689;-67
2022/01/07 02:26:01;;;;;;;;;;;23.50;42.80;;;;;;1554794;76;764;-67
2022/01/07 02:28:03;;;;;;;;;;;23.40;42.80;;;;;;1552851;76;732;-68
2022/01/07 02:30:06;;;;;;;;;;;23.40;42.80;;;;;;1529127;76;801;-68
2022/01/07 02:32:08;;;;;;;;;;;23.30;42.90;;;;;;1561253;76;1153;-68
2022/01/07 02:34:10;;;;;;;;;;;23.30;43.00;;;;;;1556692;76;777;-68
2022/01/07 02:36:13;;;;;;;;;;;23.30;43.10;;;;;;1559424;76;782;-68
2022/01/07 02:38:15;;;;;;;;;;;23.30;43.10;;;;;;1552841;75;1906;-68
2022/01/07 02:40:17;;;;;;;;;;;23.20;43.10;;;;;;1538910;76;591;-68
2022/01/07 02:42:18;;;;;;;;;;;23.20;43.10;;;;;;1557023;76;1112;-68
2022/01/07 02:44:20;;;;;;;;;;;23.20;43.20;;;;;;1560560;75;716;-68
2022/01/07 02:46:22;;;;;;;;;;;23.20;43.40;;;;;;1551348;76;790;-68
2022/01/07 02:48:24;;;;;;;;;;;23.20;43.40;;;;;;1546792;76;732;-67
2022/01/07 02:50:27;;;;;;;;;;;23.20;43.40;;;;;;1558850;76;684;-69
2022/01/07 02:52:29;;;;;;;;;;;23.20;43.40;;;;;;1557168;76;1093;-68
2022/01/07 02:54:31;;;;;;;;;;;23.20;43.40;;;;;;1566003;76;755;-68
2022/01/07 02:56:33;;;;;;;;;;;23.20;43.40;;;;;;1563248;76;770;-68
2022/01/07 02:58:34;;;;;;;;;;;23.20;43.40;;;;;;1548666;76;1938;-69
2022/01/07 03:00:36;;;;;;;;;;;23.20;43.40;;;;;;1556664;76;1172;-71
2022/01/07 03:02:40;;;;;;;;;;;23.20;43.30;;;;;;1547616;76;843;-72
2022/01/07 03:04:42;;;;;;;;;;;23.30;43.30;;;;;;1558103;75;775;-68
2022/01/07 03:06:44;;;;;;;;;;;23.30;43.20;;;;;;1540264;76;694;-70
2022/01/07 03:08:46;;;;;;;;;;;23.30;43.10;;;;;;1552899;75;804;-69
2022/01/07 03:10:48;;;;;;;;;;;23.40;42.90;;;;;;1554032;76;1202;-69
2022/01/07 03:12:50;;;;;;;;;;;23.50;43.00;;;;;;1556948;74;846;-69
2022/01/07 03:14:51;;;;;;;;;;;23.50;42.80;;;;;;1561221;75;786;-69
2022/01/07 03:16:53;;;;;;;;;;;23.50;42.80;;;;;;1555989;76;826;-71
2022/01/07 03:18:55;;;;;;;;;;;23.50;42.60;;;;;;1543178;76;1943;-69
2022/01/07 03:20:58;;;;;;;;;;;23.50;42.70;;;;;;1551570;75;1098;-68
2022/01/07 03:23:00;;;;;;;;;;;23.50;42.80;;;;;;1568874;76;774;-69
2022/01/07 03:25:02;;;;;;;;;;;23.40;42.70;;;;;;1557131;76;787;-68
2022/01/07 03:27:05;;;;;;;;;;;23.30;42.80;;;;;;1548337;76;675;-69
2022/01/07 03:29:07;;;;;;;;;;;23.30;42.90;;;;;;1549997;76;730;-68
2022/01/07 03:31:08;;;;;;;;;;;23.20;42.90;;;;;;1550144;74;1196;-69
2022/01/07 03:33:10;;;;;;;;;;;23.30;43.10;;;;;;1566941;76;795;-70
2022/01/07 03:35:13;;;;;;;;;;;23.20;43.00;;;;;;1549038;76;822;-68
2022/01/07 03:37:15;;;;;;;;;;;23.20;43.10;;;;;;1533364;76;1908;-68
2022/01/07 03:39:17;;;;;;;;;;;23.10;43.20;;;;;;1563238;76;786;-70
2022/01/07 03:41:19;;;;;;;;;;;23.20;43.20;;;;;;1558451;75;1111;-70
2022/01/07 03:43:21;;;;;;;;;;;23.10;43.30;;;;;;1561580;74;841;-69
2022/01/07 03:45:23;;;;;;;;;;;23.10;43.40;;;;;;1539049;76;790;-68
2022/01/07 03:47:25;;;;;;;;;;;23.10;43.40;;;;;;1563120;76;771;-69
2022/01/07 03:49:27;;;;;;;;;;;23.10;43.40;;;;;;1552937;76;811;-67
2022/01/07 03:51:29;;;;;;;;;;;23.10;43.50;;;;;;1555483;76;1177;-68
2022/01/07 03:53:30;;;;;;;;;;;23.10;43.40;;;;;;1543445;75;748;-67
2022/01/07 03:55:32;;;;;;;;;;;23.00;43.40;;;;;;1565591;75;767;-68
2022/01/07 03:57:34;;;;;;;;;;;23.00;43.40;;;;;;1559020;75;1920;-68
2022/01/07 03:59:36;;;;;;;;;;;23.10;43.50;;;;;;1562973;76;736;-68
2022/01/07 04:01:38;;;;;;;;;;;23.10;43.50;;;;;;1548130;73;3151;-68
2022/01/07 04:03:40;;;;;;;;;;;23.00;43.20;;;;;;1542809;74;799;-68
2022/01/07 04:05:42;;;;;;;;;;;23.00;43.20;;;;;;1553711;75;779;-71
2022/01/07 04:07:44;;;;;;;;;;;23.00;43.20;;;;;;1567782;74;729;-70
2022/01/07 04:09:46;;;;;;;;;;;23.10;43.40;;;;;;1570975;74;795;-70
2022/01/07 04:11:48;;;;;;;;;;;23.00;43.20;;;;;;1569543;74;1195;-69
2022/01/07 04:13:49;;;;;;;;;;;23.10;43.40;;;;;;1533348;76;767;-70
2022/01/07 04:15:51;;;;;;;;;;;23.00;43.30;;;;;;1547985;76;830;-69
2022/01/07 04:17:54;;;;;;;;;;;23.00;43.20;;;;;;1511056;77;1952;-70
2022/01/07 04:19:55;;;;;;;;;;;23.00;43.10;;;;;;1547563;75;750;-69
2022/01/07 04:21:57;;;;;;;;;;;23.10;43.20;;;;;;1502701;77;1166;-69
2022/01/07 04:23:59;;;;;;;;;;;23.10;43.10;;;;;;1548397;76;770;-69
2022/01/07 04:26:01;;;;;;;;;;;23.00;43.00;;;;;;1545905;76;813;-69
2022/01/07 04:28:05;;;;;;;;;;;23.10;43.10;;;;;;1541677;76;789;-70
2022/01/07 04:30:07;;;;;;;;;;;23.10;43.10;;;;;;1538024;76;720;-69
2022/01/07 04:32:09;;;;;;;;;;;23.10;43.10;;;;;;1539851;76;1170;-70
2022/01/07 04:34:11;;;;;;;;;;;23.10;43.00;;;;;;1542114;76;790;-70
2022/01/07 04:36:13;;;;;;;;;;;23.10;43.00;;;;;;1538303;76;792;-68
2022/01/07 04:38:15;;;;;;;;;;;23.10;42.90;;;;;;1533585;76;1943;-71
2022/01/07 04:40:17;;;;;;;;;;;23.10;42.80;;;;;;1518908;76;764;-71
2022/01/07 04:42:19;;;;;;;;;;;23.10;43.20;;;;;;1509604;77;1141;-72
2022/01/07 04:44:21;;;;;;;;;;;23.10;43.40;;;;;;1500307;77;777;-70
2022/01/07 04:46:23;;;;;;;;;;;23.10;43.40;;;;;;1499929;77;906;-71
2022/01/07 04:48:25;;;;;;;;;;;23.10;43.60;;;;;;1511191;77;732;-71
2022/01/07 04:50:27;;;;;;;;;;;23.10;43.60;;;;;;1507200;77;739;-70
2022/01/07 04:52:29;;;;;;;;;;;23.10;43.70;;;;;;1511162;77;1164;-70
2022/01/07 04:54:31;;;;;;;;;;;23.10;43.70;;;;;;1509487;77;730;-69
2022/01/07 04:56:33;;;;;;;;;;;23.10;43.70;;;;;;1533505;76;772;-69
2022/01/07 04:58:34;;;;;;;;;;;23.20;43.90;;;;;;1530361;76;1936;-70
2022/01/07 05:00:36;;;;;;;;;;;23.10;44.00;;;;;;1530510;77;740;-68
2022/01/07 05:02:38;;;;;;;;;;;23.10;43.90;;;;;;1536336;76;1125;-68
2022/01/07 05:04:40;;;;;;;;;;;23.20;43.90;;;;;;1543799;76;745;-68
2022/01/07 05:06:45;;;;;;;;;;;23.10;43.90;;;;;;1546037;76;809;-69
2022/01/07 05:08:47;;;;;;;;;;;23.10;43.90;;;;;;1549248;76;798;-68
2022/01/07 05:10:49;;;;;;;;;;;23.10;43.90;;;;;;1527330;76;669;-68
2022/01/07 05:12:51;;;;;;;;;;;23.20;43.90;;;;;;1541228;75;1213;-69
2022/01/07 05:14:52;;;;;;;;;;;23.20;43.90;;;;;;1557977;76;807;-69
2022/01/07 05:16:56;;;;;;;;;;;23.10;43.90;;;;;;1552433;76;765;-68
2022/01/07 05:18:58;;;;;;;;;;;23.20;44.20;;;;;;1536945;76;1905;-68
2022/01/07 05:20:59;;;;;;;;;;;23.20;44.20;;;;;;1552541;75;1139;-68
2022/01/07 05:23:01;;;;;;;;;;;23.30;44.20;;;;;;1540052;76;732;-69
2022/01/07 05:25:04;;;;;;;;;;;23.30;44.30;;;;;;1530973;76;907;-68
2022/01/07 05:27:06;;;;;;;;;;;23.20;44.20;;;;;;1528200;76;804;-68
2022/01/07 05:29:07;;;;;;;;;;;23.20;44.20;;;;;;1523191;76;823;-70
2022/01/07 05:31:09;;;;;;;;;;;23.30;44.30;;;;;;1528706;76;1164;-68
2022/01/07 05:33:11;;;;;;;;;;;23.30;44.40;;;;;;1519250;76;819;-68
2022/01/07 05:35:13;;;;;;;;;;;23.30;44.30;;;;;;1521497;76;763;-68
2022/01/07 05:37:15;;;;;;;;;;;23.30;44.40;;;;;;1517907;76;749;-68
2022/01/07 05:39:17;;;;;;;;;;;23.20;44.20;;;;;;1517325;76;1943;-68
2022/01/07 05:41:19;;;;;;;;;;;23.20;44.20;;;;;;1535692;75;1112;-68
2022/01/07 05:43:21;;;;;;;;;;;23.20;44.20;;;;;;1524716;76;775;-68
2022/01/07 05:45:22;;;;;;;;;;;23.20;44.30;;;;;;1514709;77;809;-68
2022/01/07 05:47:24;;;;;;;;;;;23.20;44.40;;;;;;1541125;76;782;-67
2022/01/07 05:49:26;;;;;;;;;;;23.20;44.30;;;;;;1527285;76;818;-67
2022/01/07 05:51:28;;;;;;;;;;;23.30;44.30;;;;;;1518950;77;1137;-69
2022/01/07 05:53:30;;;;;;;;;;;23.30;44.40;;;;;;1529976;76;717;-68
2022/01/07 05:55:32;;;;;;;;;;;23.30;44.30;;;;;;1530462;77;715;-67
2022/01/07 05:57:35;;;;;;;;;;;23.30;44.20;;;;;;1549042;76;569;-67
2022/01/07 05:59:37;;;;;;;;;;;23.30;44.20;;;;;;1535852;76;1921;-66
2022/01/07 06:01:39;;;;;;;;;;;23.30;44.30;;;;;;1524305;77;1171;-68
2022/01/07 06:03:41;;;;;;;;;;;23.30;44.20;;;;;;1528077;76;780;-67
2022/01/07 06:05:43;;;;;;;;;;;23.30;44.30;;;;;;1531412;77;765;-66
2022/01/07 06:07:45;;;;;;;;;;;23.30;44.20;;;;;;1498261;77;768;-68
2022/01/07 06:09:47;;;;;;;;;;;23.30;44.20;;;;;;1505032;77;734;-68
2022/01/07 06:11:48;;;;;;;;;;;23.30;44.20;;;;;;1527228;76;1169;-69
2022/01/07 06:13:50;;;;;;;;;;;23.30;44.20;;;;;;1518780;76;775;-68
2022/01/07 06:15:52;;;;;;;;;;;23.30;44.20;;;;;;1555029;76;793;-68
2022/01/07 06:17:54;;;;;;;;;;;23.30;44.20;;;;;;1545502;76;837;-68
2022/01/07 06:19:56;;;;;;;;;;;23.30;44.20;;;;;;1525826;76;1937;-68
2022/01/07 06:21:58;;;;;;;;;;;23.30;44.50;;;;;;1545581;76;1146;-65
2022/01/07 06:24:00;;;;;;;;;;;23.30;44.40;;;;;;1531801;77;744;-68
2022/01/07 06:26:01;;;;;;;;;;;23.30;44.40;;;;;;1523204;76;793;-68
2022/01/07 06:28:03;;;;;;;;;;;23.30;44.30;;;;;;1519627;77;787;-68
2022/01/07 06:30:06;;;;;;;;;;;23.30;44.20;;;;;;1560322;76;788;-67
2022/01/07 06:32:08;;;;;;;;;;;23.30;44.40;;;;;;1517561;78;1184;-68
2022/01/07 06:34:10;;;;;;;;;;;23.30;44.30;;;;;;1552458;76;746;-68
2022/01/07 06:36:12;;;;;;;;;;;23.40;44.20;;;;;;1551672;76;955;-69
2022/01/07 06:38:14;;;;;;;;;;;23.40;44.20;;;;;;1552515;76;1920;-68
2022/01/07 06:40:16;;;;;;;;;;;23.40;44.20;;;;;;1549083;76;782;-69
2022/01/07 06:42:18;;;;;;;;;;;23.40;44.20;;;;;;1539593;76;1129;-70
2022/01/07 06:44:19;;;;;;;;;;;23.40;44.20;;;;;;1551869;76;765;-68
2022/01/07 06:46:21;;;;;;;;;;;23.40;44.10;;;;;;1559350;76;726;-69
2022/01/07 06:48:23;;;;;;;;;;;23.30;44.10;;;;;;1537027;76;761;-70
2022/01/07 06:50:25;;;;;;;;;;;23.40;44.10;;;;;;1540820;76;731;-69
2022/01/07 06:52:28;;;;;;;;;;;23.40;44.00;;;;;;1557676;75;1131;-69
2022/01/07 06:54:31;;;;;;;;;;;23.40;44.00;;;;;;1522766;77;715;-68
2022/01/07 06:56:33;;;;;;;;;;;23.50;44.10;;;;;;1536099;75;777;-70
2022/01/07 06:58:35;;;;;;;;;;;23.40;44.00;;;;;;1557572;76;1935;-69
2022/01/07 07:00:37;;;;;;;;;;;23.40;44.00;;;;;;1492233;77;904;-69
2022/01/07 07:02:39;;;;;;;;;;;23.50;44.10;;;;;;1522172;77;1112;-69
2022/01/07 07:04:40;;;;;;;;;;;23.40;44.00;;;;;;1518276;76;786;-68
2022/01/07 07:06:42;;;;;;;;;;;23.40;44.20;;;;;;1538428;76;750;-70
2022/01/07 07:08:44;;;;;;;;;;;23.40;44.10;;;;;;1552692;76;770;-68
2022/01/07 07:10:46;;;;;;;;;;;23.40;44.10;;;;;;1539114;76;821;-70
2022/01/07 07:12:48;;;;;;;;;;;23.50;44.20;;;;;;1532956;76;1044;-68
2022/01/07 07:14:50;;;;;;;;;;;23.40;44.00;;;;;;1529066;76;705;-68
2022/01/07 07:16:52;;;;;;;;;;;23.40;44.00;;;;;;1519024;76;696;-69
2022/01/07 07:18:54;;;;;;;;;;;23.50;44.20;;;;;;1513422;77;1940;-69
2022/01/07 07:20:55;;;;;;;;;;;23.50;44.10;;;;;;1517881;76;1122;-67
2022/01/07 07:22:57;;;;;;;;;;;23.50;44.10;;;;;;1508071;77;761;-67
2022/01/07 07:24:59;;;;;;;;;;;23.40;43.90;;;;;;1507639;77;748;-68
2022/01/07 07:27:01;;;;;;;;;;;23.50;44.00;;;;;;1545238;75;808;-69
2022/01/07 07:29:03;;;;;;;;;;;23.40;43.90;;;;;;1509471;77;800;-68
2022/01/07 07:31:09;;;;;;;;;;;23.40;43.90;;;;;;1508245;77;1186;-68
2022/01/07 07:37:25;;;;;;;;;;;23.40;43.90;;;;;;1510311;77;894;-68
2022/01/07 07:39:27;;;;;;;;;;;23.50;44.00;;;;;;1511051;77;1938;-68
2022/01/07 07:41:29;;;;;;;;;;;23.50;44.00;;;;;;1515157;77;1128;-70
2022/01/07 07:43:31;;;;;;;;;;;23.50;44.10;;;;;;1509456;77;684;-68
2022/01/07 07:45:33;;;;;;;;;;;23.50;44.10;;;;;;1506895;77;731;-68
2022/01/07 07:47:35;;;;;;;;;;;23.50;44.10;;;;;;1510916;77;802;-70
2022/01/07 07:49:37;;;;;;;;;;;23.50;44.30;;;;;;1506992;77;763;-69
2022/01/07 07:51:39;;;;;;;;;;;23.50;44.50;;;;;;1536042;76;1150;-70
2022/01/07 07:53:41;;;;;;;;;;;23.50;44.50;;;;;;1514015;77;774;-67
2022/01/07 07:55:44;;;;;;;;;;;23.50;44.50;;;;;;1537844;77;768;-68
2022/01/07 07:57:46;;;;;;;;;;;23.50;44.60;;;;;;1536888;76;727;-68
2022/01/07 07:59:49;;;;;;;;;;;23.50;44.60;;;;;;1526334;76;1935;-69
2022/01/07 08:01:51;;;;;;;;;;;23.50;44.60;;;;;;1525108;76;1149;-69
2022/01/07 08:03:53;;;;;;;;;;;23.60;44.60;;;;;;1515519;77;796;-65
2022/01/07 08:05:55;;;;;;;;;;;23.50;44.50;;;;;;1521495;76;801;-69
2022/01/07 08:07:59;;;;;;;;;;;23.50;44.50;;;;;;1519737;77;787;-67
2022/01/07 08:10:00;;;;;;;;;;;23.50;44.30;;;;;;1499033;77;805;-69
2022/01/07 08:12:16;;;;;;;;;;;23.60;44.40;;;;;;1504645;77;1169;-70
2022/01/07 08:16:26;;;;;;;;;;;23.60;44.30;;;;;;1540693;76;1616;-68
2022/01/07 08:18:31;;;;;;;;;;;23.60;44.30;;;;;;1536147;76;744;-68
2022/01/07 08:20:33;;;;;;;;;;;23.60;44.30;;;;;;1535740;76;1931;-69
2022/01/07 08:22:35;;;;;;;;;;;23.60;44.40;;;;;;1548374;76;1126;-70
2022/01/07 08:24:37;;;;;;;;;;;23.60;44.40;;;;;;1524326;77;736;-69
2022/01/07 08:26:38;;;;;;;;;;;23.60;44.30;;;;;;1541076;75;772;-67
2022/01/07 08:28:45;;;;;;;;;;;23.60;44.30;;;;;;1501874;77;805;-65
2022/01/07 08:35:25;;;;;;;;;;;23.60;44.40;;;;;;1501026;77;1613;-69
2022/01/07 08:37:27;;;;;;;;;;;23.60;44.30;;;;;;1540456;76;671;-68
2022/01/07 08:39:29;;;;;;;;;;;23.60;44.30;;;;;;1514361;77;1941;-68
2022/01/07 08:41:31;;;;;;;;;;;23.60;44.20;;;;;;1514399;78;1160;-68
2022/01/07 08:43:33;;;;;;;;;;;23.60;44.20;;;;;;1528151;76;808;-68
2022/01/07 08:45:35;;;;;;;;;;;23.60;44.20;;;;;;1530331;76;705;-67
2022/01/07 08:47:37;;;;;;;;;;;23.60;44.20;;;;;;1533300;76;733;-68
2022/01/07 08:49:39;;;;;;;;;;;23.60;44.10;;;;;;1532266;76;704;-68
2022/01/07 08:51:41;;;;;;;;;;;23.60;44.10;;;;;;1532099;76;1095;-68
2022/01/07 08:53:42;;;;;;;;;;;23.60;44.10;;;;;;1528651;76;744;-69
2022/01/07 08:55:44;;;;;;;;;;;23.60;44.40;;;;;;1526190;76;785;-69
2022/01/07 08:57:46;;;;;;;;;;;23.70;44.60;;;;;;1545262;76;738;-69
2022/01/07 08:59:48;;;;;;;;;;;23.60;44.40;;;;;;1556263;76;1962;-70
2022/01/07 09:01:50;;;;;;;;;;;23.60;44.20;;;;;;1544850;75;1139;-70
2022/01/07 09:03:52;;;;;;;;;;;23.80;43.80;;;;;;1546130;76;730;-70
2022/01/07 09:05:54;;;;;;;;;;;23.90;43.20;;;;;;1548681;76;814;-70
2022/01/07 09:07:56;;;;;;;;;;;23.90;42.80;;;;;;1533163;76;785;-70
2022/01/07 09:09:58;;;;;;;;;;;24.00;42.50;;;;;;1547142;76;818;-69
2022/01/07 09:12:00;;;;;;;;;;;24.00;42.20;;;;;;1545748;75;1155;-69
2022/01/07 09:14:02;;;;;;;;;;;24.10;42.10;;;;;;1531315;76;827;-71
2022/01/07 09:16:04;;;;;;;;;;;24.10;41.80;;;;;;1551835;76;731;-71
2022/01/07 09:18:12;;;;;;;;;;;24.20;41.70;;;;;;1532108;76;776;-70
2022/01/07 09:20:13;;;;;;;;;;;24.20;41.50;;;;;;1524221;76;1905;-72
2022/01/07 09:22:15;;;;;;;;;;;24.20;41.40;;;;;;1545411;75;1150;-71
2022/01/07 09:24:17;;;;;;;;;;;24.30;41.40;;;;;;1536098;76;714;-72
2022/01/07 09:26:19;;;;;;;;;;;24.20;41.20;;;;;;1525841;76;719;-72
2022/01/07 09:28:21;;;;;;;;;;;24.30;41.00;;;;;;1538020;76;805;-72
2022/01/07 09:30:23;;;;;;;;;;;24.30;40.90;;;;;;1561341;76;733;-69
2022/01/07 09:32:25;;;;;;;;;;;24.30;40.70;;;;;;1552422;76;1166;-71
2022/01/07 09:34:27;;;;;;;;;;;24.30;40.90;;;;;;1554768;76;778;-69
2022/01/07 09:36:28;;;;;;;;;;;24.30;40.10;;;;;;1533716;76;812;-70
2022/01/07 09:38:30;;;;;;;;;;;24.30;39.40;;;;;;1502618;77;737;-69
2022/01/07 09:40:32;;;;;;;;;;;24.30;38.50;;;;;;1558912;76;2118;-67
2022/01/07 09:42:34;;;;;;;;;;;24.20;37.50;;;;;;1500362;77;1159;-69
2022/01/07 09:44:40;;;;;;;;;;;24.10;37.30;;;;;;1516194;77;709;-71
2022/01/07 09:46:42;;;;;;;;;;;24.10;36.60;;;;;;1536738;76;879;-69
2022/01/07 09:48:43;;;;;;;;;;;24.00;36.00;;;;;;1526288;77;762;-68
2022/01/07 09:50:45;;;;;;;;;;;24.00;35.60;;;;;;1542362;76;810;-69
2022/01/07 09:52:47;;;;;;;;;;;23.90;35.40;;;;;;1524375;76;1115;-69
2022/01/07 09:54:49;;;;;;;;;;;23.90;35.20;;;;;;1553721;76;792;-70
2022/01/07 09:56:51;;;;;;;;;;;23.80;34.90;;;;;;1541979;76;679;-69
2022/01/07 09:58:53;;;;;;;;;;;23.80;34.60;;;;;;1509375;77;775;-69
2022/01/07 10:00:57;;;;;;;;;;;23.70;34.40;;;;;;1551856;76;1938;-69
2022/01/07 10:03:18;;;;;;;;;;;23.70;34.30;;;;;;1537743;77;1935;-67
2022/01/07 10:05:20;;;;;;;;;;;23.70;34.20;;;;;;1477587;79;791;-68
2022/01/07 10:07:23;;;;;;;;;;;23.60;34.00;;;;;;1498313;78;664;-69
2022/01/07 10:09:25;;;;;;;;;;;23.60;33.90;;;;;;1494449;78;734;-69
2022/01/07 10:11:27;;;;;;;;;;;23.50;33.70;;;;;;1497622;77;1227;-68
2022/01/07 10:13:28;;;;;;;;;;;23.50;33.60;;;;;;1525187;77;793;-69
2022/01/07 10:15:31;;;;;;;;;;;23.50;33.60;;;;;;1523469;77;719;-69
2022/01/07 10:17:33;;;;;;;;;;;23.50;33.50;;;;;;1521068;77;686;-69
2022/01/07 10:19:36;;;;;;;;;;;23.50;33.30;;;;;;1528370;77;1926;-73
2022/01/07 10:21:38;;;;;;;;;;;23.40;34.20;;;;;;1527095;77;1167;-72
2022/01/07 10:23:40;;;;;;;;;;;23.50;34.90;;;;;;1523321;77;790;-71
2022/01/07 10:25:42;;;;;;;;;;;23.50;35.30;;;;;;1516066;77;732;-72
2022/01/07 10:27:44;;;;;;;;;;;23.40;35.40;;;;;;1515506;77;719;-71
2022/01/07 10:29:46;;;;;;;;;;;23.40;35.60;;;;;;1522326;77;751;-72
2022/01/07 10:31:48;;;;;;;;;;;23.40;35.80;;;;;;1516340;77;1178;-73
2022/01/07 10:33:50;;;;;;;;;;;23.30;36.10;;;;;;1517601;77;770;-72
2022/01/07 10:36:09;;;;;;;;;;;23.30;36.60;;;;;;1522828;77;778;-71
2022/01/07 10:38:12;;;;;;;;;;;23.30;36.30;;;;;;1528952;77;704;-73
2022/01/07 10:40:22;;;;;;;;;;;23.40;36.10;;;;;;1516017;77;2012;-72
2022/01/07 10:42:24;;;;;;;;;;;23.40;36.10;;;;;;1523750;77;1123;-71
2022/01/07 10:44:26;;;;;;;;;;;23.30;36.30;;;;;;1524489;77;706;-70
2022/01/07 10:46:30;;;;;;;;;;;23.20;36.40;;;;;;1514176;77;753;-71
2022/01/07 10:48:42;;;;;;;;;;;23.10;36.70;;;;;;1526878;77;1624;-71
2022/01/07 10:50:45;;;;;;;;;;;23.10;37.00;;;;;;1516471;77;682;-75
2022/01/07 10:52:47;;;;;;;;;;;23.10;37.20;;;;;;1525116;76;1094;-72
2022/01/07 10:54:50;;;;;;;;;;;23.10;37.40;;;;;;1517774;77;737;-73
2022/01/07 10:56:52;;;;;;;;;;;23.10;37.60;;;;;;1519628;77;1709;-73
2022/01/07 10:58:58;;;;;;;;;;;23.10;37.90;;;;;;1516304;77;697;-72
2022/01/07 11:00:59;;;;;;;;;;;23.00;37.80;;;;;;1518101;77;1921;-72
2022/01/07 11:03:01;;;;;;;;;;;23.00;38.00;;;;;;1517853;77;1128;-72
2022/01/07 11:05:03;;;;;;;;;;;23.00;38.10;;;;;;1506991;78;791;-73
2022/01/07 11:07:12;;;;;;;;;;;23.00;38.20;;;;;;1518583;77;773;-73
2022/01/07 11:09:09;;;;;;;;;;;23.00;38.20;;;;;;1519036;77;1554;-71
2022/01/07 11:11:11;;;;;;;;;;;23.10;38.20;;;;;;1516639;77;719;-71
2022/01/07 11:13:13;;;;;;;;;;;23.10;38.00;;;;;;1519974;77;1092;-71
2022/01/07 11:15:15;;;;;;;;;;;23.20;37.70;;;;;;1519454;77;733;-72
2022/01/07 11:17:21;;;;;;;;;;;23.30;37.50;;;;;;1514723;77;770;-72
2022/01/07 11:19:22;;;;;;;;;;;23.50;37.30;;;;;;1515893;77;2014;-72
2022/01/07 11:21:24;;;;;;;;;;;23.60;37.10;;;;;;1517031;77;1921;-72
2022/01/07 11:23:26;;;;;;;;;;;23.60;37.00;;;;;;1526429;77;720;-69
2022/01/07 11:25:32;;;;;;;;;;;23.70;37.00;;;;;;1520069;77;747;-73
2022/01/07 11:27:42;;;;;;;;;;;23.70;36.80;;;;;;1516886;77;1448;-73
2022/01/07 11:29:55;;;;;;;;;;;23.70;36.80;;;;;;1510163;77;1895;-69
2022/01/07 11:32:15;;;;;;;;;;;23.80;36.80;;;;;;1481954;77;1137;-74
2022/01/07 11:34:24;;;;;;;;;;;23.80;36.90;;;;;;1528994;77;711;-74
2022/01/07 11:36:28;;;;;;;;;;;23.80;37.00;;;;;;1519803;77;700;-72
2022/01/07 11:38:34;;;;;;;;;;;23.70;37.10;;;;;;1522466;77;1867;-70
2022/01/07 11:40:40;;;;;;;;;;;23.70;37.10;;;;;;1527995;77;1943;-74
2022/01/07 11:42:43;;;;;;;;;;;23.60;37.10;;;;;;1516370;77;1177;-72
2022/01/07 11:44:46;;;;;;;;;;;23.60;37.10;;;;;;1517668;77;733;-74
2022/01/07 11:46:48;;;;;;;;;;;23.60;37.10;;;;;;1514052;77;772;-72
2022/01/07 11:48:50;;;;;;;;;;;23.60;37.20;;;;;;1520743;77;753;-73
2022/01/07 11:50:59;;;;;;;;;;;23.60;37.30;;;;;;1514825;77;803;-72
2022/01/07 11:53:05;;;;;;;;;;;23.60;37.30;;;;;;1522896;77;1176;-72
2022/01/07 11:55:07;;;;;;;;;;;23.60;37.50;;;;;;1522769;77;1629;-73
2022/01/07 11:57:12;;;;;;;;;;;23.50;37.50;;;;;;1519625;77;1019;-73
2022/01/07 11:59:15;;;;;;;;;;;23.60;37.50;;;;;;1518955;77;736;-71
2022/01/07 12:01:18;;;;;;;;;;;23.60;37.60;;;;;;1525747;77;1930;-72
2022/01/07 12:03:38;;;;;;;;;;;23.60;37.60;;;;;;1518310;77;1081;-70
2022/01/07 12:05:40;;;;;;;;;;;23.50;37.70;;;;;;1522342;77;794;-67
2022/01/07 12:07:48;;;;;;;;;;;23.50;37.80;;;;;;1525444;76;724;-68
2022/01/07 12:09:50;;;;;;;;;;;23.50;37.80;;;;;;1504442;77;708;-70
2022/01/07 12:11:54;;;;;;;;;;;23.50;37.90;;;;;;1523922;76;1191;-70
2022/01/07 12:13:56;;;;;;;;;;;23.50;38.00;;;;;;1527144;77;749;-68
2022/01/07 12:15:58;;;;;;;;;;;23.50;37.90;;;;;;1519468;77;860;-69
2022/01/07 12:18:16;;;;;;;;;;;23.50;37.90;;;;;;1516337;77;770;-71
2022/01/07 12:20:31;;;;;;;;;;;23.50;38.00;;;;;;1529467;77;1934;-69
2022/01/07 12:22:33;;;;;;;;;;;23.40;37.90;;;;;;1520738;77;1153;-72